createdAt,value
2022-12-06T09:58:32.679Z,12.67
2022-12-06T10:03:55.163Z,12.63
2022-12-06T10:09:20.778Z,11.60
2022-12-06T10:14:33.316Z,12.00
2022-12-06T10:19:40.336Z,39.50
2022-12-06T10:24:58.168Z,12.37
2022-12-06T10:29:58.822Z,12.47
2022-12-06T10:34:57.183Z,14.30
2022-12-06T10:39:56.855Z,12.90
2022-12-06T10:44:54.872Z,14.93
2022-12-06T10:49:56.724Z,12.10
2022-12-06T10:54:59.665Z,11.70
2022-12-06T11:00:03.098Z,9.93
2022-12-06T11:05:03.299Z,11.00
2022-12-06T11:09:58.686Z,10.63
2022-12-06T11:14:58.002Z,11.60
2022-12-06T11:19:53.541Z,11.10
2022-12-06T11:24:56.742Z,10.70
2022-12-06T11:29:53.427Z,12.50
2022-12-06T11:34:50.551Z,8.20
2022-12-06T11:39:44.747Z,7.63
2022-12-06T11:44:49.275Z,7.00
2022-12-06T11:49:46.362Z,6.10
2022-12-06T11:54:45.492Z,6.67
2022-12-06T11:59:40.585Z,5.53
2022-12-06T12:04:38.371Z,6.63
2022-12-06T12:09:34.888Z,5.53
2022-12-06T12:14:37.506Z,6.87
2022-12-06T12:19:47.272Z,4.83
2022-12-06T12:25:03.575Z,5.40
2022-12-06T12:30:33.730Z,6.30
2022-12-06T12:35:29.942Z,4.57
2022-12-06T12:40:24.903Z,4.70
2022-12-06T12:45:21.443Z,5.30
2022-12-06T12:50:20.964Z,5.20
2022-12-06T12:55:22.596Z,5.73
2022-12-06T13:00:17.243Z,4.60
2022-12-06T13:05:32.599Z,5.20
2022-12-06T13:10:32.807Z,5.10
2022-12-06T13:15:33.992Z,5.50
2022-12-06T13:20:30.974Z,5.07
2022-12-06T13:25:24.877Z,5.63
2022-12-06T13:30:22.048Z,5.37
2022-12-06T13:35:25.461Z,6.00
2022-12-06T13:40:54.424Z,5.83
2022-12-06T13:45:50.416Z,6.77
2022-12-06T13:50:56.348Z,7.90
2022-12-06T13:56:01.656Z,7.13
2022-12-06T14:00:58.127Z,8.77
2022-12-06T14:06:09.125Z,7.60
2022-12-06T14:11:08.438Z,7.37
2022-12-06T14:16:03.745Z,7.73
2022-12-06T14:20:59.438Z,10.93
2022-12-06T14:25:52.997Z,7.80
2022-12-06T14:30:46.667Z,7.47
2022-12-06T14:35:42.011Z,7.20
2022-12-06T14:40:54.065Z,7.40
2022-12-06T14:45:48.010Z,8.27
2022-12-06T14:50:49.932Z,8.30
2022-12-06T14:55:56.404Z,8.87
2022-12-06T15:00:54.559Z,8.57
2022-12-06T15:05:57.404Z,10.00
2022-12-06T15:10:58.951Z,10.53
2022-12-06T15:16:04.145Z,9.37
2022-12-06T15:20:59.404Z,10.00
2022-12-06T15:25:53.880Z,11.50
2022-12-06T15:30:47.933Z,13.37
2022-12-06T15:35:41.445Z,11.03
2022-12-06T15:40:37.976Z,12.57
2022-12-06T15:45:32.308Z,18.03
2022-12-06T15:50:25.865Z,11.87
2022-12-06T15:55:20.011Z,16.50
2022-12-06T16:00:16.666Z,46.33
2022-12-06T16:05:16.431Z,32.30
2022-12-06T16:10:10.534Z,35.60
2022-12-06T16:15:04.352Z,18.50
2022-12-06T16:20:18.141Z,18.27
2022-12-06T16:25:11.779Z,23.20
2022-12-06T16:30:06.141Z,15.03
2022-12-06T16:35:01.355Z,16.97
2022-12-06T16:39:55.198Z,18.33
2022-12-06T16:44:52.027Z,12.20
2022-12-06T16:49:47.436Z,10.43
2022-12-06T16:54:43.274Z,10.97
2022-12-06T16:59:38.461Z,11.90
2022-12-06T17:04:31.976Z,13.80
2022-12-06T17:09:25.456Z,14.03
2022-12-06T17:14:22.719Z,16.30
2022-12-06T17:19:19.543Z,14.27
2022-12-06T17:24:14.309Z,13.43
2022-12-06T17:29:09.186Z,12.43
2022-12-06T17:34:05.557Z,12.17
2022-12-06T17:39:01.417Z,14.33
2022-12-06T17:43:55.030Z,14.20
